Marin — WZC8518 — position and weather

sailwx.info

Track history (hours):
 
Tides and Currents Weather Stations Pressure Air Temp Water Temp Dewpoint Dewpoint Depression Visibility Wind Speed Wind Dir Waves Ship Positions

Marin

Owner: GOLDEN GATE BRIDGE HWY & TRANSP DISTRICT, LARKSPUR, CA. More information available from US FCC via Universal Licensing System and Coast Guard Vessel Documentation Center.

Last reported at 2017-Oct-17 16:30 UTC. Time now 2017-Oct-17 16:44 UTC.
Position N 37°50' W 122°25'.

Length 45 m; draft 2.5 m.

Type: Passenger vessel. MMSI: 366969980.

Date/timePositionNaut miles runAvg speedWind from/ knotsBaromVisibWave heightAir tempDewpointWater temp
2017-Oct-17 16:30N 37°50' W 122°25'3 5.1
2017-Oct-17 16:01N 37°52' W 122°27'510.2
2017-Oct-17 15:30N 37°48' W 122°24'510.9
2017-Oct-17 15:00N 37°52' W 122°27'4 8.8
2017-Oct-17 14:30N 37°49' W 122°23'1 2.7
2017-Oct-17 14:01N 37°50' W 122°25'3 5.6
2017-Oct-17 13:30N 37°52' W 122°27'510.4
2017-Oct-17 13:01N 37°48' W 122°24'510.9
2017-Oct-17 12:30N 37°52' W 122°27'4 7.1
2017-Oct-17 12:01N 37°56' W 122°28'2 3.7
2017-Oct-17 11:31N 37°57' W 122°31'0 0.1
2017-Oct-17 04:39N 37°56' W 122°30'211.8
2017-Oct-17 04:30N 37°56' W 122°28'3 6.5
2017-Oct-17 04:00N 37°52' W 122°27'1 1.5
2017-Oct-17 03:30N 37°52' W 122°27'5 9.4
2017-Oct-17 03:01N 37°48' W 122°23'510.8
2017-Oct-17 02:31N 37°52' W 122°27'510.7
2017-Oct-17 02:00N 37°48' W 122°23'4 8.4
2017-Oct-17 01:31N 37°51' W 122°27'2 3.1
2017-Oct-17 01:01N 37°50' W 122°25'3 5.4
2017-Oct-17 00:31N 37°48' W 122°23'510.5
2017-Oct-17 00:00N 37°52' W 122°27'510.8
2017-Oct-16 23:30N 37°48' W 122°23'1 1.1
2017-Oct-16 23:00N 37°49' W 122°23'918.1
2017-Oct-16 22:30N 37°56' W 122°30'1 1.8
2017-Oct-16 22:01N 37°57' W 122°31'0 0.0
2017-Oct-16 18:12N 37°57' W 122°31'0 0.0
2017-Oct-16 18:00N 37°57' W 122°31'1 2.5
2017-Oct-16 17:30N 37°56' W 122°29'714.9
2017-Oct-16 17:01N 37°50' W 122°24'1 1.6
2017-Oct-16 16:31N 37°50' W 122°24'3 5.7
2017-Oct-16 16:01N 37°52' W 122°27'5 9.8
2017-Oct-16 15:30N 37°48' W 122°24'511.0
2017-Oct-16 15:00N 37°52' W 122°27'3 2.9
2017-Oct-16 14:01N 37°50' W 122°25'3 5.1
2017-Oct-16 13:30N 37°52' W 122°27'510.1
2017-Oct-16 13:00N 37°48' W 122°24'511.0
2017-Oct-16 12:31N 37°52' W 122°27'4 7.8
2017-Oct-16 12:01N 37°56' W 122°29'1 2.7
2017-Oct-16 11:30N 37°57' W 122°31'0 0.0
2017-Oct-16 03:07N 37°57' W 122°31'0 4.1
2017-Oct-16 03:00N 37°56' W 122°30'816.1
2017-Oct-16 02:30N 37°50' W 122°24'1 2.2
2017-Oct-16 02:01N 37°50' W 122°25'4 7.1
2017-Oct-16 01:30N 37°51' W 122°29'510.8
2017-Oct-16 01:00N 37°48' W 122°24'0 0.0
2017-Oct-16 00:30N 37°48' W 122°24'0 0.0
2017-Oct-16 00:00N 37°48' W 122°24'1 1.1
2017-Oct-15 23:31N 37°48' W 122°23'510.7
2017-Oct-15 23:00N 37°51' W 122°29'1 1.4
2017-Oct-15 22:30N 37°51' W 122°28'5 9.5
2017-Oct-15 22:00N 37°48' W 122°24'510.6
2017-Oct-15 21:30N 37°51' W 122°29'3 5.0
2017-Oct-15 21:00N 37°53' W 122°26'510.2
2017-Oct-15 20:30N 37°57' W 122°31'0 0.0
2017-Oct-15 20:00N 37°57' W 122°31'0 0.0
2017-Oct-15 19:30N 37°57' W 122°31'0 0.0
2017-Oct-15 19:00N 37°57' W 122°31'0 0.0
2017-Oct-15 18:30N 37°57' W 122°31'0 0.0
2017-Oct-15 18:00N 37°57' W 122°31'0 0.0
2017-Oct-15 17:30N 37°57' W 122°31'0 0.0
2017-Oct-15 17:00N 37°57' W 122°31'0 0.0
2017-Oct-15 16:30N 37°57' W 122°31'0 0.0
2017-Oct-15 16:00N 37°57' W 122°31'0 0.0
2017-Oct-15 03:13N 37°57' W 122°31'1 5.4
2017-Oct-15 03:00N 37°56' W 122°29'917.5
2017-Oct-15 02:30N 37°49' W 122°23'2 3.8
2017-Oct-15 02:00N 37°50' W 122°25'3 6.0
2017-Oct-15 01:30N 37°51' W 122°28'510.5
2017-Oct-15 01:00N 37°48' W 122°24'0 0.0
2017-Oct-15 00:30N 37°48' W 122°24'0 0.0
2017-Oct-15 00:00N 37°48' W 122°24'1 1.8
2017-Oct-14 23:31N 37°49' W 122°23'510.1
2017-Oct-14 23:01N 37°51' W 122°29'4 7.0
2017-Oct-14 22:31N 37°50' W 122°25'2 4.6
2017-Oct-14 22:00N 37°48' W 122°23'510.7
2017-Oct-14 21:30N 37°51' W 122°29'2 3.6
2017-Oct-14 21:00N 37°52' W 122°27'510.7
2017-Oct-14 20:30N 37°57' W 122°31'0 0.0
2017-Oct-14 20:00N 37°57' W 122°31'0 0.0
2017-Oct-14 02:58N 37°57' W 122°31'0 0.0
2017-Oct-14 02:30N 37°57' W 122°31'0 0.0
2017-Oct-14 01:47N 37°57' W 122°31'1 4.3
2017-Oct-14 01:28N 37°56' W 122°29'816.8
2017-Oct-14 01:01N 37°50' W 122°23'2 3.2
2017-Oct-14 00:30N 37°48' W 122°23'510.8
2017-Oct-14 00:00N 37°51' W 122°29'1 2.5
2017-Oct-13 23:31N 37°52' W 122°27'0 0.6
2017-Oct-13 23:00N 37°52' W 122°27'1 1.1
2017-Oct-13 22:30N 37°52' W 122°27'1 1.7
2017-Oct-13 22:01N 37°51' W 122°27'2 3.5
2017-Oct-13 21:31N 37°53' W 122°26'510.0
2017-Oct-13 21:01N 37°57' W 122°30'0 0.3
2017-Oct-13 20:30N 37°57' W 122°31'0 0.0
2017-Oct-13 20:00N 37°57' W 122°31'0 0.0
2017-Oct-13 19:30N 37°57' W 122°31'0 0.0
2017-Oct-13 19:00N 37°57' W 122°31'0 0.0
2017-Oct-13 18:30N 37°57' W 122°31'0 0.0
2017-Oct-13 18:00N 37°57' W 122°31'3 5.3
2017-Oct-13 17:31N 37°55' W 122°28'5 9.7
2017-Oct-13 17:00N 37°51' W 122°24'2 4.9
2017-Oct-13 16:30N 37°49' W 122°24'4 8.6
2017-Oct-13 16:00N 37°52' W 122°27'510.7
2017-Oct-13 15:31N 37°48' W 122°24'510.3
2017-Oct-13 15:00N 37°52' W 122°27'3 6.7
2017-Oct-13 14:30N 37°50' W 122°24'0 1.0
2017-Oct-13 14:00N 37°50' W 122°25'3 6.7
2017-Oct-13 13:31N 37°52' W 122°27'510.9
2017-Oct-13 13:00N 37°48' W 122°24'511.0
2017-Oct-13 12:31N 37°52' W 122°27'3 6.6
2017-Oct-13 12:01N 37°56' W 122°28'2 0.3
2017-Oct-13 04:50N 37°57' W 122°31'0 0.2
2017-Oct-13 04:30N 37°57' W 122°31'1 2.2
2017-Oct-13 04:00N 37°56' W 122°29'5 9.7
2017-Oct-13 03:30N 37°51' W 122°29'510.7
2017-Oct-13 03:01N 37°48' W 122°23'4 7.4
2017-Oct-13 02:30N 37°51' W 122°27'0 0.9
2017-Oct-13 02:00N 37°51' W 122°26'3 6.9
2017-Oct-13 01:31N 37°48' W 122°23'510.7
2017-Oct-13 01:00N 37°51' W 122°29'510.9
2017-Oct-13 00:30N 37°48' W 122°24'2 4.3
2017-Oct-13 00:00N 37°50' W 122°25'4 7.1
2017-Oct-12 23:30N 37°51' W 122°29'510.9
2017-Oct-12 23:00N 37°48' W 122°24'3 6.6
2017-Oct-12 22:31N 37°50' W 122°26'2 4.2
2017-Oct-12 22:00N 37°51' W 122°28'510.4
2017-Oct-12 21:31N 37°48' W 122°24'510.0
2017-Oct-12 21:01N 37°51' W 122°28'0 0.8
2017-Oct-12 20:30N 37°51' W 122°29'510.5
2017-Oct-12 20:01N 37°48' W 122°23'2 3.3
2017-Oct-12 19:31N 37°50' W 122°25'4 7.3
2017-Oct-12 19:00N 37°51' W 122°29'510.8
2017-Oct-12 18:30N 37°48' W 122°24'5 9.6
2017-Oct-12 18:00N 37°51' W 122°28'1 1.3
2017-Oct-12 17:30N 37°51' W 122°29'510.9
2017-Oct-12 17:00N 37°48' W 122°24'1 2.4
2017-Oct-12 16:31N 37°49' W 122°24'4 8.5
2017-Oct-12 16:00N 37°52' W 122°27'510.5
2017-Oct-12 15:30N 37°48' W 122°24'510.7
2017-Oct-12 15:00N 37°52' W 122°27'4 7.0
2017-Oct-12 14:31N 37°50' W 122°24'1 1.2
2017-Oct-12 14:00N 37°50' W 122°25'3 6.4
2017-Oct-12 13:30N 37°52' W 122°27'510.8
2017-Oct-12 13:01N 37°48' W 122°24'510.9
2017-Oct-12 12:30N 37°52' W 122°27'3 6.0
2017-Oct-12 12:01N 37°55' W 122°27'3 0.4
2017-Oct-12 04:29N 37°57' W 122°30'1 2.3
2017-Oct-12 04:00N 37°56' W 122°29'5 9.6
2017-Oct-12 03:30N 37°51' W 122°29'510.7
2017-Oct-12 03:01N 37°48' W 122°24'5 9.3
2017-Oct-12 02:30N 37°51' W 122°28'2 4.3
2017-Oct-12 02:00N 37°50' W 122°25'2 4.4
2017-Oct-12 01:31N 37°49' W 122°23'5 9.8
2017-Oct-12 01:00N 37°51' W 122°29'510.9
2017-Oct-12 00:31N 37°48' W 122°24'2 4.4
2017-Oct-12 00:01N 37°50' W 122°25'3 6.8
2017-Oct-11 23:30N 37°51' W 122°29'510.8
2017-Oct-11 23:00N 37°48' W 122°24'3 6.6
2017-Oct-11 22:30N 37°50' W 122°26'2 4.0
2017-Oct-11 22:00N 37°51' W 122°28'510.3
2017-Oct-11 21:30N 37°48' W 122°24'510.0
2017-Oct-11 21:01N 37°51' W 122°28'0 0.9
2017-Oct-11 20:31N 37°51' W 122°29'510.9
2017-Oct-11 20:01N 37°48' W 122°23'2 3.8
2017-Oct-11 19:31N 37°50' W 122°24'4 7.3
2017-Oct-11 19:01N 37°51' W 122°29'510.6
2017-Oct-11 18:30N 37°48' W 122°24'510.4
2017-Oct-11 18:00N 37°51' W 122°28'0 0.5
2017-Oct-11 17:30N 37°51' W 122°29'510.9
2017-Oct-11 17:00N 37°48' W 122°24'5 0.3
2017-Oct-11 00:00N 37°52' W 122°27'510.9
2017-Oct-10 23:30N 37°48' W 122°23'0 0.6
2017-Oct-10 23:00N 37°48' W 122°23'0 0.5
2017-Oct-10 22:30N 37°48' W 122°24'0 0.0
2017-Oct-10 22:00N 37°48' W 122°24'0 0.0
2017-Oct-10 21:30N 37°48' W 122°24'0 0.0
2017-Oct-10 21:00N 37°48' W 122°24'0 0.0
2017-Oct-10 20:30N 37°48' W 122°24'0 0.0
2017-Oct-10 20:00N 37°48' W 122°24'0 0.0
2017-Oct-10 19:30N 37°48' W 122°24'0 0.0
2017-Oct-10 19:00N 37°48' W 122°24'0 0.0
2017-Oct-10 18:30N 37°48' W 122°24'0 0.0
2017-Oct-10 18:00N 37°48' W 122°24'0 0.0
2017-Oct-10 17:30N 37°48' W 122°24'0 0.5
2017-Oct-10 17:00N 37°48' W 122°23'2 3.2
2017-Oct-10 16:31N 37°49' W 122°24'4 7.9
2017-Oct-10 16:00N 37°52' W 122°27'510.4
2017-Oct-10 15:30N 37°48' W 122°24'510.7
2017-Oct-10 15:00N 37°52' W 122°27'3 3.4
2017-Oct-10 14:00N 37°50' W 122°25'3 6.5
2017-Oct-10 13:30N 37°52' W 122°27'510.5
2017-Oct-10 13:00N 37°48' W 122°24'510.9
2017-Oct-10 12:30N 37°52' W 122°27'3 6.5
2017-Oct-10 12:00N 37°56' W 122°28'2 0.3
2017-Oct-10 04:30N 37°57' W 122°31'3 6.2
2017-Oct-10 04:00N 37°55' W 122°27'3 6.1
2017-Oct-10 03:30N 37°52' W 122°27'510.4
2017-Oct-10 03:00N 37°48' W 122°23'511.0
2017-Oct-10 02:31N 37°52' W 122°27'510.5
2017-Oct-10 02:00N 37°48' W 122°23'4 7.4
2017-Oct-10 01:30N 37°51' W 122°26'1 1.6
2017-Oct-10 01:01N 37°51' W 122°25'3 6.3
2017-Oct-10 00:30N 37°48' W 122°23'510.8
2017-Oct-10 00:00N 37°52' W 122°27'510.4
2017-Oct-09 23:31N 37°48' W 122°23'1 1.2
2017-Oct-09 23:01N 37°48' W 122°23'0 0.6
2017-Oct-09 22:31N 37°48' W 122°24'0 0.0
2017-Oct-09 22:00N 37°48' W 122°24'0 0.0
2017-Oct-09 21:30N 37°48' W 122°24'0 0.0
2017-Oct-09 21:01N 37°48' W 122°24'0 0.0
2017-Oct-09 20:31N 37°48' W 122°24'0 0.0
2017-Oct-09 20:01N 37°48' W 122°24'0 0.0
2017-Oct-09 19:31N 37°48' W 122°24'0 0.0
2017-Oct-09 19:00N 37°48' W 122°24'0 0.0
2017-Oct-09 18:30N 37°48' W 122°24'0 0.0
2017-Oct-09 18:01N 37°48' W 122°24'0 0.0
2017-Oct-09 17:30N 37°48' W 122°24'0 0.6
2017-Oct-09 17:00N 37°48' W 122°23'1 2.8
2017-Oct-09 16:30N 37°49' W 122°24'4 8.1
2017-Oct-09 16:00N 37°52' W 122°27'510.6
2017-Oct-09 15:30N 37°48' W 122°24'510.6
2017-Oct-09 15:00N 37°52' W 122°27'4 7.7
2017-Oct-09 14:31N 37°50' W 122°24'1 2.2
2017-Oct-09 14:00N 37°50' W 122°25'3 5.7
2017-Oct-09 13:30N 37°52' W 122°27'510.6
2017-Oct-09 13:00N 37°48' W 122°24'510.9
2017-Oct-09 12:30N 37°52' W 122°27'4 8.0
2017-Oct-09 12:01N 37°56' W 122°29'1 0.1
2017-Oct-09 03:30N 37°57' W 122°31'4 8.5
2017-Oct-09 03:00N 37°54' W 122°26'713.3
2017-Oct-09 02:30N 37°48' W 122°24'2 4.9
2017-Oct-09 02:01N 37°50' W 122°25'3 6.1
2017-Oct-09 01:30N 37°51' W 122°29'510.8
2017-Oct-09 01:00N 37°48' W 122°24'0 0.0
2017-Oct-09 00:30N 37°48' W 122°24'0 0.1
2017-Oct-09 00:00N 37°48' W 122°24'3 7.0
2017-Oct-08 23:30N 37°50' W 122°27'2 3.8
2017-Oct-08 23:00N 37°51' W 122°29'2 4.7
2017-Oct-08 22:30N 37°51' W 122°26'3 6.9
2017-Oct-08 22:00N 37°48' W 122°24'510.6
2017-Oct-08 21:30N 37°51' W 122°29'0 0.2
2017-Oct-08 21:00N 37°51' W 122°29'0 0.2
2017-Oct-08 20:30N 37°51' W 122°29'510.7
2017-Oct-08 20:00N 37°48' W 122°24'10 0.6
2017-Oct-08 02:41N 37°57' W 122°31'0 0.4
2017-Oct-08 02:30N 37°57' W 122°30'3 5.8
2017-Oct-08 02:00N 37°55' W 122°27'816.0
2017-Oct-08 01:30N 37°48' W 122°24'1 1.7
2017-Oct-08 01:01N 37°49' W 122°23'510.1
2017-Oct-08 00:30N 37°51' W 122°29'510.9
2017-Oct-08 00:00N 37°48' W 122°23'1 2.4
2017-Oct-07 23:31N 37°49' W 122°24'5 9.0
2017-Oct-07 23:00N 37°51' W 122°29'0 0.7
2017-Oct-07 22:30N 37°51' W 122°28'510.3
2017-Oct-07 22:00N 37°48' W 122°24'4 7.1
2017-Oct-07 21:30N 37°51' W 122°26'2 3.4
2017-Oct-07 21:00N 37°51' W 122°28'510.2
2017-Oct-07 20:30N 37°48' W 122°24'4 8.3
2017-Oct-07 20:01N 37°51' W 122°27'1 2.1
2017-Oct-07 19:30N 37°51' W 122°28'510.3
2017-Oct-07 19:00N 37°48' W 122°24'510.7
2017-Oct-07 18:30N 37°51' W 122°29'2 5.1
2017-Oct-07 18:01N 37°51' W 122°26'3 6.6
2017-Oct-07 17:30N 37°48' W 122°24'612.1
2017-Oct-07 17:01N 37°53' W 122°26'  
Track history (hours):
 
Tides and Currents Weather Stations Pressure Air Temp Water Temp Dewpoint Dewpoint Depression Visibility Wind Speed Wind Dir Waves Ship Positions

Marin

Owner: GOLDEN GATE BRIDGE HWY & TRANSP DISTRICT, LARKSPUR, CA. More information available from US FCC via Universal Licensing System and Coast Guard Vessel Documentation Center.

Last reported at 2017-Oct-17 16:30 UTC. Time now 2017-Oct-17 16:44 UTC.
Position N 37°50' W 122°25'.

Length 45 m; draft 2.5 m.

Type: Passenger vessel. MMSI: 366969980.

Date/timePositionNaut miles runAvg speedWind from/ knotsBaromVisibWave heightAir tempDewpointWater temp
2017-Oct-17 16:30N 37°50' W 122°25'3 5.1
2017-Oct-17 16:01N 37°52' W 122°27'510.2
2017-Oct-17 15:30N 37°48' W 122°24'510.9
2017-Oct-17 15:00N 37°52' W 122°27'4 8.8
2017-Oct-17 14:30N 37°49' W 122°23'1 2.7
2017-Oct-17 14:01N 37°50' W 122°25'3 5.6
2017-Oct-17 13:30N 37°52' W 122°27'510.4
2017-Oct-17 13:01N 37°48' W 122°24'510.9
2017-Oct-17 12:30N 37°52' W 122°27'4 7.1
2017-Oct-17 12:01N 37°56' W 122°28'2 3.7
2017-Oct-17 11:31N 37°57' W 122°31'0 0.1
2017-Oct-17 04:39N 37°56' W 122°30'211.8
2017-Oct-17 04:30N 37°56' W 122°28'3 6.5
2017-Oct-17 04:00N 37°52' W 122°27'1 1.5
2017-Oct-17 03:30N 37°52' W 122°27'5 9.4
2017-Oct-17 03:01N 37°48' W 122°23'510.8
2017-Oct-17 02:31N 37°52' W 122°27'510.7
2017-Oct-17 02:00N 37°48' W 122°23'4 8.4
2017-Oct-17 01:31N 37°51' W 122°27'2 3.1
2017-Oct-17 01:01N 37°50' W 122°25'3 5.4
2017-Oct-17 00:31N 37°48' W 122°23'510.5
2017-Oct-17 00:00N 37°52' W 122°27'510.8
2017-Oct-16 23:30N 37°48' W 122°23'1 1.1
2017-Oct-16 23:00N 37°49' W 122°23'918.1
2017-Oct-16 22:30N 37°56' W 122°30'1 1.8
2017-Oct-16 22:01N 37°57' W 122°31'0 0.0
2017-Oct-16 18:12N 37°57' W 122°31'0 0.0
2017-Oct-16 18:00N 37°57' W 122°31'1 2.5
2017-Oct-16 17:30N 37°56' W 122°29'714.9
2017-Oct-16 17:01N 37°50' W 122°24'1 1.6
2017-Oct-16 16:31N 37°50' W 122°24'3 5.7
2017-Oct-16 16:01N 37°52' W 122°27'5 9.8
2017-Oct-16 15:30N 37°48' W 122°24'511.0
2017-Oct-16 15:00N 37°52' W 122°27'3 2.9
2017-Oct-16 14:01N 37°50' W 122°25'3 5.1
2017-Oct-16 13:30N 37°52' W 122°27'510.1
2017-Oct-16 13:00N 37°48' W 122°24'511.0
2017-Oct-16 12:31N 37°52' W 122°27'4 7.8
2017-Oct-16 12:01N 37°56' W 122°29'1 2.7
2017-Oct-16 11:30N 37°57' W 122°31'0 0.0
2017-Oct-16 03:07N 37°57' W 122°31'0 4.1
2017-Oct-16 03:00N 37°56' W 122°30'816.1
2017-Oct-16 02:30N 37°50' W 122°24'1 2.2
2017-Oct-16 02:01N 37°50' W 122°25'4 7.1
2017-Oct-16 01:30N 37°51' W 122°29'510.8
2017-Oct-16 01:00N 37°48' W 122°24'0 0.0
2017-Oct-16 00:30N 37°48' W 122°24'0 0.0
2017-Oct-16 00:00N 37°48' W 122°24'1 1.1
2017-Oct-15 23:31N 37°48' W 122°23'510.7
2017-Oct-15 23:00N 37°51' W 122°29'1 1.4
2017-Oct-15 22:30N 37°51' W 122°28'5 9.5
2017-Oct-15 22:00N 37°48' W 122°24'510.6
2017-Oct-15 21:30N 37°51' W 122°29'3 5.0
2017-Oct-15 21:00N 37°53' W 122°26'510.2
2017-Oct-15 20:30N 37°57' W 122°31'0 0.0
2017-Oct-15 20:00N 37°57' W 122°31'0 0.0
2017-Oct-15 19:30N 37°57' W 122°31'0 0.0
2017-Oct-15 19:00N 37°57' W 122°31'0 0.0
2017-Oct-15 18:30N 37°57' W 122°31'0 0.0
2017-Oct-15 18:00N 37°57' W 122°31'0 0.0
2017-Oct-15 17:30N 37°57' W 122°31'0 0.0
2017-Oct-15 17:00N 37°57' W 122°31'0 0.0
2017-Oct-15 16:30N 37°57' W 122°31'0 0.0
2017-Oct-15 16:00N 37°57' W 122°31'0 0.0
2017-Oct-15 03:13N 37°57' W 122°31'1 5.4
2017-Oct-15 03:00N 37°56' W 122°29'917.5
2017-Oct-15 02:30N 37°49' W 122°23'2 3.8
2017-Oct-15 02:00N 37°50' W 122°25'3 6.0
2017-Oct-15 01:30N 37°51' W 122°28'510.5
2017-Oct-15 01:00N 37°48' W 122°24'0 0.0
2017-Oct-15 00:30N 37°48' W 122°24'0 0.0
2017-Oct-15 00:00N 37°48' W 122°24'1 1.8
2017-Oct-14 23:31N 37°49' W 122°23'510.1
2017-Oct-14 23:01N 37°51' W 122°29'4 7.0
2017-Oct-14 22:31N 37°50' W 122°25'2 4.6
2017-Oct-14 22:00N 37°48' W 122°23'510.7
2017-Oct-14 21:30N 37°51' W 122°29'2 3.6
2017-Oct-14 21:00N 37°52' W 122°27'510.7
2017-Oct-14 20:30N 37°57' W 122°31'0 0.0
2017-Oct-14 20:00N 37°57' W 122°31'0 0.0
2017-Oct-14 02:58N 37°57' W 122°31'0 0.0
2017-Oct-14 02:30N 37°57' W 122°31'0 0.0
2017-Oct-14 01:47N 37°57' W 122°31'1 4.3
2017-Oct-14 01:28N 37°56' W 122°29'816.8
2017-Oct-14 01:01N 37°50' W 122°23'2 3.2
2017-Oct-14 00:30N 37°48' W 122°23'510.8
2017-Oct-14 00:00N 37°51' W 122°29'1 2.5
2017-Oct-13 23:31N 37°52' W 122°27'0 0.6
2017-Oct-13 23:00N 37°52' W 122°27'1 1.1
2017-Oct-13 22:30N 37°52' W 122°27'1 1.7
2017-Oct-13 22:01N 37°51' W 122°27'2 3.5
2017-Oct-13 21:31N 37°53' W 122°26'510.0
2017-Oct-13 21:01N 37°57' W 122°30'0 0.3
2017-Oct-13 20:30N 37°57' W 122°31'0 0.0
2017-Oct-13 20:00N 37°57' W 122°31'0 0.0
2017-Oct-13 19:30N 37°57' W 122°31'0 0.0
2017-Oct-13 19:00N 37°57' W 122°31'0 0.0
2017-Oct-13 18:30N 37°57' W 122°31'0 0.0
2017-Oct-13 18:00N 37°57' W 122°31'3 5.3
2017-Oct-13 17:31N 37°55' W 122°28'5 9.7
2017-Oct-13 17:00N 37°51' W 122°24'2 4.9
2017-Oct-13 16:30N 37°49' W 122°24'4 8.6
2017-Oct-13 16:00N 37°52' W 122°27'510.7
2017-Oct-13 15:31N 37°48' W 122°24'510.3
2017-Oct-13 15:00N 37°52' W 122°27'3 6.7
2017-Oct-13 14:30N 37°50' W 122°24'0 1.0
2017-Oct-13 14:00N 37°50' W 122°25'3 6.7
2017-Oct-13 13:31N 37°52' W 122°27'510.9
2017-Oct-13 13:00N 37°48' W 122°24'511.0
2017-Oct-13 12:31N 37°52' W 122°27'3 6.6
2017-Oct-13 12:01N 37°56' W 122°28'2 0.3
2017-Oct-13 04:50N 37°57' W 122°31'0 0.2
2017-Oct-13 04:30N 37°57' W 122°31'1 2.2
2017-Oct-13 04:00N 37°56' W 122°29'5 9.7
2017-Oct-13 03:30N 37°51' W 122°29'510.7
2017-Oct-13 03:01N 37°48' W 122°23'4 7.4
2017-Oct-13 02:30N 37°51' W 122°27'0 0.9
2017-Oct-13 02:00N 37°51' W 122°26'3 6.9
2017-Oct-13 01:31N 37°48' W 122°23'510.7
2017-Oct-13 01:00N 37°51' W 122°29'510.9
2017-Oct-13 00:30N 37°48' W 122°24'2 4.3
2017-Oct-13 00:00N 37°50' W 122°25'4 7.1
2017-Oct-12 23:30N 37°51' W 122°29'510.9
2017-Oct-12 23:00N 37°48' W 122°24'3 6.6
2017-Oct-12 22:31N 37°50' W 122°26'2 4.2
2017-Oct-12 22:00N 37°51' W 122°28'510.4
2017-Oct-12 21:31N 37°48' W 122°24'510.0
2017-Oct-12 21:01N 37°51' W 122°28'0 0.8
2017-Oct-12 20:30N 37°51' W 122°29'510.5
2017-Oct-12 20:01N 37°48' W 122°23'2 3.3
2017-Oct-12 19:31N 37°50' W 122°25'4 7.3
2017-Oct-12 19:00N 37°51' W 122°29'510.8
2017-Oct-12 18:30N 37°48' W 122°24'5 9.6
2017-Oct-12 18:00N 37°51' W 122°28'1 1.3
2017-Oct-12 17:30N 37°51' W 122°29'510.9
2017-Oct-12 17:00N 37°48' W 122°24'1 2.4
2017-Oct-12 16:31N 37°49' W 122°24'4 8.5
2017-Oct-12 16:00N 37°52' W 122°27'510.5
2017-Oct-12 15:30N 37°48' W 122°24'510.7
2017-Oct-12 15:00N 37°52' W 122°27'4 7.0
2017-Oct-12 14:31N 37°50' W 122°24'1 1.2
2017-Oct-12 14:00N 37°50' W 122°25'3 6.4
2017-Oct-12 13:30N 37°52' W 122°27'510.8
2017-Oct-12 13:01N 37°48' W 122°24'510.9
2017-Oct-12 12:30N 37°52' W 122°27'3 6.0
2017-Oct-12 12:01N 37°55' W 122°27'3 0.4
2017-Oct-12 04:29N 37°57' W 122°30'1 2.3
2017-Oct-12 04:00N 37°56' W 122°29'5 9.6
2017-Oct-12 03:30N 37°51' W 122°29'510.7
2017-Oct-12 03:01N 37°48' W 122°24'5 9.3
2017-Oct-12 02:30N 37°51' W 122°28'2 4.3
2017-Oct-12 02:00N 37°50' W 122°25'2 4.4
2017-Oct-12 01:31N 37°49' W 122°23'5 9.8
2017-Oct-12 01:00N 37°51' W 122°29'510.9
2017-Oct-12 00:31N 37°48' W 122°24'2 4.4
2017-Oct-12 00:01N 37°50' W 122°25'3 6.8
2017-Oct-11 23:30N 37°51' W 122°29'510.8
2017-Oct-11 23:00N 37°48' W 122°24'3 6.6
2017-Oct-11 22:30N 37°50' W 122°26'2 4.0
2017-Oct-11 22:00N 37°51' W 122°28'510.3
2017-Oct-11 21:30N 37°48' W 122°24'510.0
2017-Oct-11 21:01N 37°51' W 122°28'0 0.9
2017-Oct-11 20:31N 37°51' W 122°29'510.9
2017-Oct-11 20:01N 37°48' W 122°23'2 3.8
2017-Oct-11 19:31N 37°50' W 122°24'4 7.3
2017-Oct-11 19:01N 37°51' W 122°29'510.6
2017-Oct-11 18:30N 37°48' W 122°24'510.4
2017-Oct-11 18:00N 37°51' W 122°28'0 0.5
2017-Oct-11 17:30N 37°51' W 122°29'510.9
2017-Oct-11 17:00N 37°48' W 122°24'5 0.3
2017-Oct-11 00:00N 37°52' W 122°27'510.9
2017-Oct-10 23:30N 37°48' W 122°23'0 0.6
2017-Oct-10 23:00N 37°48' W 122°23'0 0.5
2017-Oct-10 22:30N 37°48' W 122°24'0 0.0
2017-Oct-10 22:00N 37°48' W 122°24'0 0.0
2017-Oct-10 21:30N 37°48' W 122°24'0 0.0
2017-Oct-10 21:00N 37°48' W 122°24'0 0.0
2017-Oct-10 20:30N 37°48' W 122°24'0 0.0
2017-Oct-10 20:00N 37°48' W 122°24'0 0.0
2017-Oct-10 19:30N 37°48' W 122°24'0 0.0
2017-Oct-10 19:00N 37°48' W 122°24'0 0.0
2017-Oct-10 18:30N 37°48' W 122°24'0 0.0
2017-Oct-10 18:00N 37°48' W 122°24'0 0.0
2017-Oct-10 17:30N 37°48' W 122°24'0 0.5
2017-Oct-10 17:00N 37°48' W 122°23'2 3.2
2017-Oct-10 16:31N 37°49' W 122°24'4 7.9
2017-Oct-10 16:00N 37°52' W 122°27'510.4
2017-Oct-10 15:30N 37°48' W 122°24'510.7
2017-Oct-10 15:00N 37°52' W 122°27'3 3.4
2017-Oct-10 14:00N 37°50' W 122°25'3 6.5
2017-Oct-10 13:30N 37°52' W 122°27'510.5
2017-Oct-10 13:00N 37°48' W 122°24'510.9
2017-Oct-10 12:30N 37°52' W 122°27'3 6.5
2017-Oct-10 12:00N 37°56' W 122°28'2 0.3
2017-Oct-10 04:30N 37°57' W 122°31'3 6.2
2017-Oct-10 04:00N 37°55' W 122°27'3 6.1
2017-Oct-10 03:30N 37°52' W 122°27'510.4
2017-Oct-10 03:00N 37°48' W 122°23'511.0
2017-Oct-10 02:31N 37°52' W 122°27'510.5
2017-Oct-10 02:00N 37°48' W 122°23'4 7.4
2017-Oct-10 01:30N 37°51' W 122°26'1 1.6
2017-Oct-10 01:01N 37°51' W 122°25'3 6.3
2017-Oct-10 00:30N 37°48' W 122°23'510.8
2017-Oct-10 00:00N 37°52' W 122°27'510.4
2017-Oct-09 23:31N 37°48' W 122°23'1 1.2
2017-Oct-09 23:01N 37°48' W 122°23'0 0.6
2017-Oct-09 22:31N 37°48' W 122°24'0 0.0
2017-Oct-09 22:00N 37°48' W 122°24'0 0.0
2017-Oct-09 21:30N 37°48' W 122°24'0 0.0
2017-Oct-09 21:01N 37°48' W 122°24'0 0.0
2017-Oct-09 20:31N 37°48' W 122°24'0 0.0
2017-Oct-09 20:01N 37°48' W 122°24'0 0.0
2017-Oct-09 19:31N 37°48' W 122°24'0 0.0
2017-Oct-09 19:00N 37°48' W 122°24'0 0.0
2017-Oct-09 18:30N 37°48' W 122°24'0 0.0
2017-Oct-09 18:01N 37°48' W 122°24'0 0.0
2017-Oct-09 17:30N 37°48' W 122°24'0 0.6
2017-Oct-09 17:00N 37°48' W 122°23'1 2.8
2017-Oct-09 16:30N 37°49' W 122°24'4 8.1
2017-Oct-09 16:00N 37°52' W 122°27'510.6
2017-Oct-09 15:30N 37°48' W 122°24'510.6
2017-Oct-09 15:00N 37°52' W 122°27'4 7.7
2017-Oct-09 14:31N 37°50' W 122°24'1 2.2
2017-Oct-09 14:00N 37°50' W 122°25'3 5.7
2017-Oct-09 13:30N 37°52' W 122°27'510.6
2017-Oct-09 13:00N 37°48' W 122°24'510.9
2017-Oct-09 12:30N 37°52' W 122°27'4 8.0
2017-Oct-09 12:01N 37°56' W 122°29'1 0.1
2017-Oct-09 03:30N 37°57' W 122°31'4 8.5
2017-Oct-09 03:00N 37°54' W 122°26'713.3
2017-Oct-09 02:30N 37°48' W 122°24'2 4.9
2017-Oct-09 02:01N 37°50' W 122°25'3 6.1
2017-Oct-09 01:30N 37°51' W 122°29'510.8
2017-Oct-09 01:00N 37°48' W 122°24'0 0.0
2017-Oct-09 00:30N 37°48' W 122°24'0 0.1
2017-Oct-09 00:00N 37°48' W 122°24'3 7.0
2017-Oct-08 23:30N 37°50' W 122°27'2 3.8
2017-Oct-08 23:00N 37°51' W 122°29'2 4.7
2017-Oct-08 22:30N 37°51' W 122°26'3 6.9
2017-Oct-08 22:00N 37°48' W 122°24'510.6
2017-Oct-08 21:30N 37°51' W 122°29'0 0.2
2017-Oct-08 21:00N 37°51' W 122°29'0 0.2
2017-Oct-08 20:30N 37°51' W 122°29'510.7
2017-Oct-08 20:00N 37°48' W 122°24'10 0.6
2017-Oct-08 02:41N 37°57' W 122°31'0 0.4
2017-Oct-08 02:30N 37°57' W 122°30'3 5.8
2017-Oct-08 02:00N 37°55' W 122°27'816.0
2017-Oct-08 01:30N 37°48' W 122°24'1 1.7
2017-Oct-08 01:01N 37°49' W 122°23'510.1
2017-Oct-08 00:30N 37°51' W 122°29'510.9
2017-Oct-08 00:00N 37°48' W 122°23'1 2.4
2017-Oct-07 23:31N 37°49' W 122°24'5 9.0
2017-Oct-07 23:00N 37°51' W 122°29'0 0.7
2017-Oct-07 22:30N 37°51' W 122°28'510.3
2017-Oct-07 22:00N 37°48' W 122°24'4 7.1
2017-Oct-07 21:30N 37°51' W 122°26'2 3.4
2017-Oct-07 21:00N 37°51' W 122°28'510.2
2017-Oct-07 20:30N 37°48' W 122°24'4 8.3
2017-Oct-07 20:01N 37°51' W 122°27'1 2.1
2017-Oct-07 19:30N 37°51' W 122°28'510.3
2017-Oct-07 19:00N 37°48' W 122°24'510.7
2017-Oct-07 18:30N 37°51' W 122°29'2 5.1
2017-Oct-07 18:01N 37°51' W 122°26'3 6.6
2017-Oct-07 17:30N 37°48' W 122°24'612.1
2017-Oct-07 17:01N 37°53' W 122°26'  

Dump ship's entire track history